Time;durP1;ratioP1;P1;durP2;ratioP2;P2;SDS_P1;SDS_P2;PMS_P1;PMS_P2;Temp;Humidity;BMP_temperature;BMP_pressure;BME280_temperature;BME280_humidity;BME280_pressure;Samples;Min_cycle;Max_cycle;Signal;HPM_P1;HPM_P2
2021/08/24 00:00:21;;;;;;;6.97;5.22;;;;;;;;;;5043229;28;20249;-85
2021/08/24 00:02:47;;;;;;;9.30;6.45;;;;;;;;;;5042177;28;20209;-83
2021/08/24 00:05:17;;;;;;;3.83;3.30;;;;;;;;;;5051077;28;20185;-85
2021/08/24 00:07:43;;;;;;;7.47;4.43;;;;;;;;;;5049334;28;20235;-85
2021/08/24 00:10:10;;;;;;;4.87;3.70;;;;;;;;;;5052163;28;20263;-84
2021/08/24 00:12:36;;;;;;;8.13;4.05;;;;;;;;;;5056726;28;20428;-83
2021/08/24 00:15:02;;;;;;;7.03;4.27;;;;;;;;;;5058935;28;20562;-85
2021/08/24 00:17:28;;;;;;;5.00;3.72;;;;;;;;;;5050331;28;20475;-85
2021/08/24 00:19:54;;;;;;;8.07;3.80;;;;;;;;;;5048987;28;20228;-83
2021/08/24 00:22:20;;;;;;;7.50;4.20;;;;;;;;;;5049350;28;20451;-85
2021/08/24 00:24:46;;;;;;;9.60;4.82;;;;;;;;;;5049408;28;20205;-85
2021/08/24 00:27:12;;;;;;;7.53;4.13;;;;;;;;;;5043671;28;20170;-85
2021/08/24 00:29:38;;;;;;;7.00;4.18;;;;;;;;;;5048808;28;20470;-84
2021/08/24 00:32:04;;;;;;;3.72;3.33;;;;;;;;;;5048239;28;20174;-84
2021/08/24 00:34:30;;;;;;;7.05;4.40;;;;;;;;;;5049447;28;20190;-85
2021/08/24 00:36:56;;;;;;;5.63;4.40;;;;;;;;;;5048957;28;20209;-85
2021/08/24 00:39:22;;;;;;;5.93;3.87;;;;;;;;;;5043013;28;20512;-85
2021/08/24 00:41:48;;;;;;;8.90;3.77;;;;;;;;;;5060921;28;20515;-85
2021/08/24 00:44:14;;;;;;;10.27;5.10;;;;;;;;;;5049500;28;20826;-85
2021/08/24 00:46:48;;;;;;;5.88;3.60;;;;;;;;;;5048476;28;20432;-84
2021/08/24 00:49:19;;;;;;;7.97;4.13;;;;;;;;;;5046291;28;20187;-85
2021/08/24 00:51:46;;;;;;;6.03;3.83;;;;;;;;;;5049045;28;20169;-85
2021/08/24 00:54:13;;;;;;;6.15;4.15;;;;;;;;;;5043227;28;20266;-85
2021/08/24 00:56:44;;;;;;;7.57;4.88;;;;;;;;;;5047922;28;20208;-84
2021/08/24 00:59:10;;;;;;;8.60;4.45;;;;;;;;;;5047735;28;20174;-85
2021/08/24 01:01:36;;;;;;;5.70;4.00;;;;;;;;;;5047803;28;20253;-85
2021/08/24 01:04:03;;;;;;;6.47;4.00;;;;;;;;;;5051716;28;20205;-84
2021/08/24 01:06:37;;;;;;;8.00;3.90;;;;;;;;;;5060511;28;20210;-85
2021/08/24 01:09:03;;;;;;;5.55;3.85;;;;;;;;;;5040828;28;20189;-84
2021/08/24 01:11:35;;;;;;;6.07;3.57;;;;;;;;;;5049094;28;20188;-85
2021/08/24 01:14:07;;;;;;;8.57;4.00;;;;;;;;;;5048454;28;20420;-85
2021/08/24 01:16:33;;;;;;;8.40;4.57;;;;;;;;;;5047367;28;20201;-84
2021/08/24 01:19:02;;;;;;;6.23;3.80;;;;;;;;;;5047663;28;20237;-84
2021/08/24 01:21:43;;;;;;;6.60;4.78;;;;;;;;;;5046135;28;20431;-83
2021/08/24 01:24:19;;;;;;;7.68;4.30;;;;;;;;;;5042237;28;20205;-84
2021/08/24 01:26:48;;;;;;;6.68;4.28;;;;;;;;;;5059606;28;20180;-85
2021/08/24 01:29:14;;;;;;;5.18;3.83;;;;;;;;;;5061780;28;20196;-85
2021/08/24 01:31:43;;;;;;;7.03;5.00;;;;;;;;;;5049024;28;20189;-85
2021/08/24 01:34:27;;;;;;;7.72;3.90;;;;;;;;;;5048400;28;20468;-84
2021/08/24 01:37:03;;;;;;;15.13;5.93;;;;;;;;;;5053240;28;20188;-85
2021/08/24 01:39:40;;;;;;;6.35;4.40;;;;;;;;;;5057727;28;20193;-84
2021/08/24 01:42:06;;;;;;;8.50;5.22;;;;;;;;;;5057016;28;20181;-85
2021/08/24 01:44:37;;;;;;;7.70;5.40;;;;;;;;;;5056570;28;20238;-84
2021/08/24 01:47:05;;;;;;;11.13;4.63;;;;;;;;;;5046231;28;20188;-84
2021/08/24 01:49:44;;;;;;;5.22;4.50;;;;;;;;;;5046620;28;20192;-84
2021/08/24 01:52:12;;;;;;;10.10;5.25;;;;;;;;;;5046329;28;20182;-84
2021/08/24 01:54:47;;;;;;;8.30;4.55;;;;;;;;;;5047163;28;20192;-85
2021/08/24 01:57:21;;;;;;;7.35;4.50;;;;;;;;;;5043397;28;20268;-84
2021/08/24 02:00:08;;;;;;;6.03;4.90;;;;;;;;;;5044989;28;20182;-85
2021/08/24 02:02:38;;;;;;;8.27;4.78;;;;;;;;;;5060174;28;20656;-85
2021/08/24 02:05:04;;;;;;;7.50;4.57;;;;;;;;;;5054732;28;20206;-85
2021/08/24 02:07:33;;;;;;;12.80;5.03;;;;;;;;;;5052750;28;20748;-84
2021/08/24 02:10:03;;;;;;;9.38;5.25;;;;;;;;;;5055495;28;20452;-85
2021/08/24 02:12:31;;;;;;;8.93;5.55;;;;;;;;;;5045978;28;20201;-85
2021/08/24 02:14:57;;;;;;;11.90;6.47;;;;;;;;;;5042297;28;20193;-85
2021/08/24 02:17:23;;;;;;;8.70;6.03;;;;;;;;;;5048653;28;20181;-85
2021/08/24 02:19:55;;;;;;;9.85;6.25;;;;;;;;;;5046776;28;20233;-84
2021/08/24 02:22:27;;;;;;;7.80;5.60;;;;;;;;;;5048270;28;20249;-85
2021/08/24 02:24:55;;;;;;;8.57;7.40;;;;;;;;;;5058036;28;20212;-84
2021/08/24 02:27:23;;;;;;;8.90;5.70;;;;;;;;;;5055976;28;20213;-85
2021/08/24 02:29:49;;;;;;;8.20;5.63;;;;;;;;;;5044596;28;20181;-85
2021/08/24 02:32:18;;;;;;;7.30;5.05;;;;;;;;;;5048019;28;20165;-85
2021/08/24 02:34:50;;;;;;;7.97;6.07;;;;;;;;;;5046191;28;20656;-84
2021/08/24 02:37:30;;;;;;;10.30;6.68;;;;;;;;;;5046986;28;20186;-84
2021/08/24 02:39:59;;;;;;;8.75;7.05;;;;;;;;;;5046880;28;20379;-83
2021/08/24 02:42:44;;;;;;;11.98;8.57;;;;;;;;;;5044699;28;20182;-85
2021/08/24 02:45:12;;;;;;;11.27;6.75;;;;;;;;;;5040716;28;20201;-83
2021/08/24 02:47:38;;;;;;;13.65;7.15;;;;;;;;;;5047692;28;20177;-85
2021/08/24 02:50:06;;;;;;;7.88;7.07;;;;;;;;;;5072945;28;20240;-85
2021/08/24 02:52:33;;;;;;;7.93;6.45;;;;;;;;;;5038992;28;20178;-84
2021/08/24 02:55:00;;;;;;;8.85;6.63;;;;;;;;;;5052253;28;20197;-84
2021/08/24 02:57:25;;;;;;;10.63;7.55;;;;;;;;;;5057066;28;20188;-85
2021/08/24 02:59:51;;;;;;;10.13;7.50;;;;;;;;;;5042254;28;20205;-84
2021/08/24 03:02:18;;;;;;;12.75;7.60;;;;;;;;;;5047123;28;20413;-83
2021/08/24 03:04:44;;;;;;;9.85;8.15;;;;;;;;;;5046584;28;20568;-85
2021/08/24 03:07:14;;;;;;;10.55;7.30;;;;;;;;;;5046228;28;20181;-85
2021/08/24 03:09:41;;;;;;;8.23;7.43;;;;;;;;;;5057516;28;20191;-85
2021/08/24 03:12:12;;;;;;;11.15;7.53;;;;;;;;;;5039229;28;20249;-85
2021/08/24 03:14:44;;;;;;;14.07;8.30;;;;;;;;;;5046614;28;20202;-85
2021/08/24 03:17:17;;;;;;;8.60;7.65;;;;;;;;;;5055624;28;20184;-84
2021/08/24 03:19:44;;;;;;;13.48;8.80;;;;;;;;;;5048443;28;20228;-85
2021/08/24 03:22:11;;;;;;;9.70;8.55;;;;;;;;;;5047178;28;20201;-85
2021/08/24 03:24:37;;;;;;;11.38;10.25;;;;;;;;;;5045626;28;20207;-85
2021/08/24 03:27:05;;;;;;;12.40;8.82;;;;;;;;;;5039396;28;20178;-85
2021/08/24 03:29:31;;;;;;;14.82;9.63;;;;;;;;;;5059904;28;20177;-85
2021/08/24 03:31:57;;;;;;;11.10;9.35;;;;;;;;;;5046383;28;20238;-85
2021/08/24 03:34:24;;;;;;;16.45;9.60;;;;;;;;;;5045611;28;20241;-85
2021/08/24 03:36:50;;;;;;;11.25;9.35;;;;;;;;;;5044671;28;20193;-85
2021/08/24 03:39:16;;;;;;;14.35;8.30;;;;;;;;;;5038830;28;20254;-84
2021/08/24 03:41:42;;;;;;;11.90;8.70;;;;;;;;;;5057016;28;20177;-82
2021/08/24 03:44:08;;;;;;;12.70;9.35;;;;;;;;;;5045938;28;20486;-85
2021/08/24 03:46:34;;;;;;;12.80;9.63;;;;;;;;;;5046024;28;20371;-85
2021/08/24 03:49:00;;;;;;;15.93;10.10;;;;;;;;;;5045725;28;20252;-85
2021/08/24 03:51:27;;;;;;;13.32;9.90;;;;;;;;;;5043349;28;20178;-84
2021/08/24 03:53:53;;;;;;;11.93;8.82;;;;;;;;;;5042252;28;20170;-84
2021/08/24 03:56:19;;;;;;;13.23;9.95;;;;;;;;;;5046334;28;20177;-85
2021/08/24 03:58:44;;;;;;;14.70;10.67;;;;;;;;;;5045941;28;20238;-85
2021/08/24 04:01:12;;;;;;;14.73;10.70;;;;;;;;;;5045523;28;20814;-85
2021/08/24 04:03:38;;;;;;;14.43;10.57;;;;;;;;;;5041380;28;20463;-85
2021/08/24 04:06:04;;;;;;;14.23;9.00;;;;;;;;;;5056373;28;20201;-84
2021/08/24 04:08:30;;;;;;;12.55;10.27;;;;;;;;;;5046563;28;20496;-85
2021/08/24 04:10:56;;;;;;;14.18;9.30;;;;;;;;;;5044425;28;20192;-85
2021/08/24 04:13:22;;;;;;;11.55;10.35;;;;;;;;;;5045502;28;20563;-83
2021/08/24 04:15:48;;;;;;;12.65;8.95;;;;;;;;;;5046918;28;20185;-85
2021/08/24 04:18:15;;;;;;;12.35;10.43;;;;;;;;;;5056975;28;20233;-83
2021/08/24 04:20:41;;;;;;;14.27;10.27;;;;;;;;;;5060987;28;20655;-84
2021/08/24 04:23:08;;;;;;;11.82;10.00;;;;;;;;;;5046463;28;20178;-85
2021/08/24 04:25:34;;;;;;;13.88;9.20;;;;;;;;;;5045221;28;20201;-85
2021/08/24 04:28:00;;;;;;;16.03;9.90;;;;;;;;;;5044062;28;20193;-85
2021/08/24 04:30:26;;;;;;;13.00;8.90;;;;;;;;;;5042285;28;20437;-83
2021/08/24 04:32:52;;;;;;;12.37;9.57;;;;;;;;;;5041967;28;20500;-85
2021/08/24 04:35:19;;;;;;;14.13;10.97;;;;;;;;;;5046703;28;20842;-84
2021/08/24 04:37:45;;;;;;;12.38;11.07;;;;;;;;;;5043955;28;20440;-84
2021/08/24 04:40:12;;;;;;;10.70;9.50;;;;;;;;;;5044536;28;20186;-85
2021/08/24 04:42:38;;;;;;;13.98;10.90;;;;;;;;;;5045181;28;20184;-85
2021/08/24 04:45:04;;;;;;;11.02;9.23;;;;;;;;;;5039661;28;20221;-83
2021/08/24 04:47:30;;;;;;;11.88;9.50;;;;;;;;;;5046425;28;20630;-85
2021/08/24 04:49:56;;;;;;;12.67;9.33;;;;;;;;;;5045109;28;20181;-85
2021/08/24 04:52:22;;;;;;;12.82;9.65;;;;;;;;;;5048390;28;20450;-85
2021/08/24 04:54:48;;;;;;;12.75;10.50;;;;;;;;;;5046412;28;20249;-85
2021/08/24 04:57:15;;;;;;;11.02;9.15;;;;;;;;;;5043766;28;20186;-85
2021/08/24 04:59:41;;;;;;;15.30;9.75;;;;;;;;;;5048629;28;20178;-83
2021/08/24 05:02:07;;;;;;;12.20;10.50;;;;;;;;;;5048621;28;20265;-84
2021/08/24 05:04:33;;;;;;;11.27;9.27;;;;;;;;;;5048811;28;20602;-85
2021/08/24 05:06:58;;;;;;;12.95;10.00;;;;;;;;;;5047988;28;20181;-84
2021/08/24 05:09:25;;;;;;;12.00;8.97;;;;;;;;;;5046569;28;20226;-84
2021/08/24 05:11:51;;;;;;;10.35;8.32;;;;;;;;;;5045545;28;20419;-84
2021/08/24 05:14:17;;;;;;;9.80;8.52;;;;;;;;;;5061653;28;20177;-84
2021/08/24 05:16:43;;;;;;;11.40;9.50;;;;;;;;;;5051107;28;20333;-85
2021/08/24 05:19:09;;;;;;;12.90;10.10;;;;;;;;;;5052997;28;20256;-84
2021/08/24 05:21:36;;;;;;;11.35;9.40;;;;;;;;;;5059615;28;20439;-85
2021/08/24 05:24:02;;;;;;;11.75;8.20;;;;;;;;;;5041735;28;20201;-85
2021/08/24 05:26:28;;;;;;;9.27;8.27;;;;;;;;;;5049333;28;20186;-85
2021/08/24 05:28:54;;;;;;;12.27;8.80;;;;;;;;;;5048150;28;20177;-85
2021/08/24 05:31:20;;;;;;;10.23;9.13;;;;;;;;;;5048437;28;20741;-85
2021/08/24 05:33:46;;;;;;;11.37;9.20;;;;;;;;;;5048191;28;20538;-85
2021/08/24 05:36:12;;;;;;;11.30;9.55;;;;;;;;;;5044034;28;20820;-85
2021/08/24 05:38:39;;;;;;;15.90;9.27;;;;;;;;;;5063367;28;20173;-84
2021/08/24 05:41:05;;;;;;;12.60;7.97;;;;;;;;;;5058977;28;20715;-84
2021/08/24 05:43:31;;;;;;;10.30;8.82;;;;;;;;;;5042955;28;20208;-85
2021/08/24 05:46:02;;;;;;;17.08;8.23;;;;;;;;;;5046158;28;20231;-85
2021/08/24 05:48:28;;;;;;;13.15;8.82;;;;;;;;;;5043499;28;20200;-84
2021/08/24 05:50:55;;;;;;;12.10;8.85;;;;;;;;;;5058119;28;20180;-85
2021/08/24 05:53:21;;;;;;;15.48;8.00;;;;;;;;;;5048060;28;20224;-84
2021/08/24 05:55:47;;;;;;;9.80;7.80;;;;;;;;;;5052479;28;20215;-84
2021/08/24 05:58:13;;;;;;;13.00;9.20;;;;;;;;;;5054493;28;20188;-85
2021/08/24 06:00:39;;;;;;;11.55;9.68;;;;;;;;;;5058596;28;20181;-85
2021/08/24 06:03:06;;;;;;;12.85;9.45;;;;;;;;;;5041305;28;20249;-84
2021/08/24 06:05:32;;;;;;;9.43;7.97;;;;;;;;;;5044064;28;20189;-84
2021/08/24 06:07:58;;;;;;;10.80;7.80;;;;;;;;;;5053813;28;20195;-84
2021/08/24 06:10:24;;;;;;;17.05;9.63;;;;;;;;;;5052302;28;20701;-83
2021/08/24 06:12:50;;;;;;;12.63;7.78;;;;;;;;;;5046774;28;20188;-84
2021/08/24 06:15:17;;;;;;;11.90;8.80;;;;;;;;;;5044239;28;20193;-85
2021/08/24 06:17:46;;;;;;;10.88;8.40;;;;;;;;;;5046883;28;20416;-84
2021/08/24 06:20:12;;;;;;;15.40;7.60;;;;;;;;;;5049033;28;20178;-82
2021/08/24 06:22:38;;;;;;;10.47;8.13;;;;;;;;;;5054605;28;20664;-83
2021/08/24 06:25:04;;;;;;;11.38;8.25;;;;;;;;;;5056164;28;20471;-85
2021/08/24 06:27:30;;;;;;;10.75;8.93;;;;;;;;;;5056898;28;20249;-84
2021/08/24 06:29:56;;;;;;;10.52;9.02;;;;;;;;;;5042936;28;20170;-84
2021/08/24 06:32:28;;;;;;;9.87;8.73;;;;;;;;;;5047859;28;20176;-83
2021/08/24 06:34:54;;;;;;;10.88;8.10;;;;;;;;;;5047345;28;20437;-84
2021/08/24 06:37:20;;;;;;;11.80;7.87;;;;;;;;;;5046409;28;20193;-84
2021/08/24 06:39:46;;;;;;;9.13;8.07;;;;;;;;;;5046579;28;20474;-85
2021/08/24 06:42:13;;;;;;;11.23;7.70;;;;;;;;;;5040674;28;20477;-85
2021/08/24 06:44:39;;;;;;;11.07;7.70;;;;;;;;;;5045749;28;21010;-85
2021/08/24 06:47:05;;;;;;;12.38;8.10;;;;;;;;;;5046522;28;20228;-84
2021/08/24 06:49:31;;;;;;;13.77;9.23;;;;;;;;;;5045367;28;20170;-85
2021/08/24 06:51:59;;;;;;;16.83;7.28;;;;;;;;;;5044926;28;20275;-85
2021/08/24 06:54:25;;;;;;;13.85;8.43;;;;;;;;;;5044128;28;20178;-84
2021/08/24 06:56:51;;;;;;;13.73;9.45;;;;;;;;;;5044370;28;20191;-83
2021/08/24 06:59:17;;;;;;;15.37;9.10;;;;;;;;;;5059177;28;20269;-84
2021/08/24 07:01:43;;;;;;;10.70;8.50;;;;;;;;;;5043848;28;20792;-85
2021/08/24 07:04:10;;;;;;;11.27;9.00;;;;;;;;;;5043861;28;20671;-83
2021/08/24 07:06:36;;;;;;;12.23;9.20;;;;;;;;;;5057830;28;20718;-83
2021/08/24 07:09:03;;;;;;;11.27;8.10;;;;;;;;;;5040848;28;20173;-85
2021/08/24 07:11:29;;;;;;;10.10;7.78;;;;;;;;;;5047001;28;20277;-85
2021/08/24 07:13:56;;;;;;;15.35;7.45;;;;;;;;;;5045097;28;20178;-84
2021/08/24 07:16:23;;;;;;;8.80;7.63;;;;;;;;;;5047906;28;20223;-84
2021/08/24 07:18:51;;;;;;;11.52;7.70;;;;;;;;;;5055230;28;20296;-85
2021/08/24 07:21:17;;;;;;;11.10;8.27;;;;;;;;;;5042874;28;20188;-85
2021/08/24 07:23:44;;;;;;;12.35;7.97;;;;;;;;;;5044361;28;20208;-84
2021/08/24 07:26:10;;;;;;;14.18;7.55;;;;;;;;;;5045733;28;20186;-84
2021/08/24 07:28:36;;;;;;;16.23;9.05;;;;;;;;;;5046634;28;20189;-84
2021/08/24 07:31:03;;;;;;;14.82;8.25;;;;;;;;;;5046288;28;20181;-84
2021/08/24 07:33:29;;;;;;;15.02;8.35;;;;;;;;;;5043477;28;20284;-85
2021/08/24 07:35:55;;;;;;;9.07;7.35;;;;;;;;;;5041353;28;20182;-84
2021/08/24 07:38:21;;;;;;;12.00;7.03;;;;;;;;;;5046859;28;20229;-85
2021/08/24 07:40:47;;;;;;;10.68;8.50;;;;;;;;;;5046127;28;20447;-85
2021/08/24 07:43:14;;;;;;;12.75;8.65;;;;;;;;;;5044213;28;20186;-84
2021/08/24 07:45:40;;;;;;;10.32;8.27;;;;;;;;;;5045750;28;20197;-84
2021/08/24 07:48:06;;;;;;;9.93;7.18;;;;;;;;;;5040543;28;20182;-84
2021/08/24 07:50:32;;;;;;;10.70;9.27;;;;;;;;;;5046995;28;20170;-85
2021/08/24 07:52:58;;;;;;;11.95;9.20;;;;;;;;;;5045482;28;20471;-84
2021/08/24 07:55:24;;;;;;;12.60;8.33;;;;;;;;;;5045839;28;20190;-84
2021/08/24 07:57:50;;;;;;;13.00;11.43;;;;;;;;;;5045603;28;20421;-83
2021/08/24 08:00:16;;;;;;;10.98;9.25;;;;;;;;;;5057223;28;20186;-83
2021/08/24 08:02:42;;;;;;;10.30;8.60;;;;;;;;;;5043851;28;20232;-84
2021/08/24 08:05:08;;;;;;;12.38;8.10;;;;;;;;;;5044860;28;20206;-84
2021/08/24 08:07:34;;;;;;;9.77;7.95;;;;;;;;;;5045967;28;20185;-84
2021/08/24 08:10:00;;;;;;;10.27;7.80;;;;;;;;;;5043686;28;20190;-84
2021/08/24 08:12:26;;;;;;;9.30;8.27;;;;;;;;;;5056238;28;20439;-84
2021/08/24 08:14:52;;;;;;;13.07;9.03;;;;;;;;;;5041806;28;20426;-84
2021/08/24 08:17:18;;;;;;;11.13;8.70;;;;;;;;;;5046641;28;20473;-83
2021/08/24 08:19:44;;;;;;;10.95;6.88;;;;;;;;;;5045438;28;20230;-83
2021/08/24 08:22:11;;;;;;;8.17;7.33;;;;;;;;;;5049560;28;20185;-84
2021/08/24 08:24:37;;;;;;;8.60;5.35;;;;;;;;;;5057096;28;20469;-85
2021/08/24 08:27:03;;;;;;;6.95;6.25;;;;;;;;;;5044821;28;20212;-85
2021/08/24 08:29:29;;;;;;;6.47;5.85;;;;;;;;;;5050328;28;20184;-84
2021/08/24 08:32:00;;;;;;;6.63;5.93;;;;;;;;;;5053658;28;20209;-82
2021/08/24 08:34:26;;;;;;;6.40;5.72;;;;;;;;;;5055341;28;20444;-83
2021/08/24 08:36:53;;;;;;;6.17;5.00;;;;;;;;;;5052273;28;20184;-84
2021/08/24 08:39:19;;;;;;;6.25;5.60;;;;;;;;;;5058517;28;20443;-84
2021/08/24 08:41:57;;;;;;;9.50;5.60;;;;;;;;;;5048835;28;20176;-83
2021/08/24 08:44:23;;;;;;;8.02;5.00;;;;;;;;;;5061921;28;20217;-84
2021/08/24 08:47:13;;;;;;;6.60;4.40;;;;;;;;;;5046579;28;20298;-84
2021/08/24 08:49:45;;;;;;;4.78;4.15;;;;;;;;;;5049571;28;20466;-83
2021/08/24 08:52:23;;;;;;;5.65;4.68;;;;;;;;;;5048876;28;20684;-82
2021/08/24 08:54:55;;;;;;;4.72;4.18;;;;;;;;;;5046946;28;20210;-83
2021/08/24 08:57:33;;;;;;;5.57;3.92;;;;;;;;;;5045313;28;20267;-83
2021/08/24 09:00:05;;;;;;;7.20;4.10;;;;;;;;;;5043824;28;20198;-84
2021/08/24 09:03:09;;;;;;;6.25;3.90;;;;;;;;;;5065522;28;20422;-84
2021/08/24 09:05:36;;;;;;;8.20;3.97;;;;;;;;;;4992288;28;20232;-84
2021/08/24 09:08:02;;;;;;;3.33;3.00;;;;;;;;;;4999575;28;20314;-84
2021/08/24 09:10:43;;;;;;;4.47;3.30;;;;;;;;;;4993522;28;20483;-82
2021/08/24 09:13:22;;;;;;;5.17;4.37;;;;;;;;;;5005082;28;20445;-83
2021/08/24 09:15:51;;;;;;;4.23;2.83;;;;;;;;;;4986750;28;20735;-84
2021/08/24 09:18:20;;;;;;;3.20;2.90;;;;;;;;;;4999471;28;20525;-83
2021/08/24 09:21:12;;;;;;;2.80;2.60;;;;;;;;;;4989057;28;20779;-83
2021/08/24 09:23:38;;;;;;;3.60;2.93;;;;;;;;;;5011897;28;20486;-81
2021/08/24 09:26:28;;;;;;;4.43;3.30;;;;;;;;;;4985769;28;20394;-85
2021/08/24 09:28:56;;;;;;;3.30;3.00;;;;;;;;;;4991425;28;20428;-82
2021/08/24 09:31:22;;;;;;;4.10;3.10;;;;;;;;;;5004843;28;20448;-84
2021/08/24 09:33:49;;;;;;;4.73;2.67;;;;;;;;;;5004744;28;20433;-84
2021/08/24 09:36:16;;;;;;;3.87;2.67;;;;;;;;;;5012478;28;20415;-83
2021/08/24 09:38:50;;;;;;;5.43;2.73;;;;;;;;;;5047900;28;20511;-84
2021/08/24 09:41:21;;;;;;;2.60;2.40;;;;;;;;;;5048145;28;20934;-84
2021/08/24 09:43:48;;;;;;;3.80;2.50;;;;;;;;;;5055798;28;20445;-85
2021/08/24 09:46:17;;;;;;;4.17;2.80;;;;;;;;;;5058938;28;20418;-83
2021/08/24 09:48:49;;;;;;;3.40;3.10;;;;;;;;;;5057104;28;20406;-82
2021/08/24 09:51:24;;;;;;;3.83;2.10;;;;;;;;;;5043829;28;20467;-82
2021/08/24 09:53:54;;;;;;;3.17;2.87;;;;;;;;;;5046340;28;20413;-82
2021/08/24 09:56:22;;;;;;;2.47;2.20;;;;;;;;;;5056598;28;20446;-83
2021/08/24 09:58:50;;;;;;;5.23;2.33;;;;;;;;;;5058221;28;20923;-84
2021/08/24 10:01:16;;;;;;;4.07;3.20;;;;;;;;;;5053932;28;20419;-83
2021/08/24 10:03:44;;;;;;;3.10;2.57;;;;;;;;;;5047730;28;20970;-83
2021/08/24 10:06:16;;;;;;;7.03;3.00;;;;;;;;;;5041891;28;20417;-83
2021/08/24 10:08:43;;;;;;;3.63;2.50;;;;;;;;;;5061950;28;20416;-82
2021/08/24 10:11:12;;;;;;;3.50;2.17;;;;;;;;;;5046685;28;20420;-83
2021/08/24 10:13:40;;;;;;;4.13;2.63;;;;;;;;;;5046353;28;20407;-84
2021/08/24 10:16:06;;;;;;;3.20;2.90;;;;;;;;;;5046813;28;20440;-85
2021/08/24 10:18:34;;;;;;;2.63;2.43;;;;;;;;;;5058337;28;20467;-83
2021/08/24 10:21:05;;;;;;;3.60;2.93;;;;;;;;;;5043235;28;20441;-83
2021/08/24 10:23:34;;;;;;;3.60;2.43;;;;;;;;;;5047967;28;20467;-84
2021/08/24 10:26:02;;;;;;;3.23;2.57;;;;;;;;;;5047356;28;20517;-84
2021/08/24 10:28:31;;;;;;;3.33;2.57;;;;;;;;;;5046551;28;20428;-85
2021/08/24 10:31:02;;;;;;;5.07;2.70;;;;;;;;;;5045473;28;20511;-85
2021/08/24 10:33:32;;;;;;;2.47;2.10;;;;;;;;;;5044548;28;20407;-84
2021/08/24 10:36:05;;;;;;;5.67;2.40;;;;;;;;;;5043970;28;20470;-82
2021/08/24 10:38:39;;;;;;;3.47;2.03;;;;;;;;;;5048698;28;20422;-83
2021/08/24 10:41:17;;;;;;;2.37;1.80;;;;;;;;;;5059426;28;20438;-83
2021/08/24 10:43:51;;;;;;;4.30;2.30;;;;;;;;;;5041851;28;20494;-81
2021/08/24 10:46:17;;;;;;;3.23;2.13;;;;;;;;;;5043816;28;20416;-83
2021/08/24 10:48:43;;;;;;;3.67;2.83;;;;;;;;;;5046353;28;20407;-82
2021/08/24 10:51:13;;;;;;;2.80;2.37;;;;;;;;;;5056115;28;20438;-84
2021/08/24 10:53:42;;;;;;;2.63;2.30;;;;;;;;;;5047670;28;20412;-82
2021/08/24 10:56:18;;;;;;;3.23;2.70;;;;;;;;;;5043650;28;20431;-82
2021/08/24 10:58:55;;;;;;;2.47;1.97;;;;;;;;;;5046485;28;20429;-83
2021/08/24 11:01:31;;;;;;;3.30;2.80;;;;;;;;;;5046764;28;20406;-83
2021/08/24 11:04:00;;;;;;;3.70;2.13;;;;;;;;;;5055322;28;20486;-85
2021/08/24 11:06:45;;;;;;;4.73;2.70;;;;;;;;;;5043270;28;20429;-84
2021/08/24 11:09:14;;;;;;;1.90;1.80;;;;;;;;;;5041273;28;20435;-84
2021/08/24 11:11:56;;;;;;;4.90;2.60;;;;;;;;;;5044708;28;20393;-84
2021/08/24 11:14:41;;;;;;;2.67;1.80;;;;;;;;;;5056342;28;20708;-83
2021/08/24 11:17:42;;;;;;;3.37;2.43;;;;;;;;;;5044740;28;20460;-82
2021/08/24 11:20:20;;;;;;;3.20;2.13;;;;;;;;;;5025691;28;20472;-83
2021/08/24 11:23:02;;;;;;;3.10;2.23;;;;;;;;;;5022096;28;20609;-82
2021/08/24 11:25:47;;;;;;;2.00;1.70;;;;;;;;;;5011887;28;20467;-83
2021/08/24 11:28:19;;;;;;;1.83;1.73;;;;;;;;;;5021974;28;20477;-83
2021/08/24 11:30:47;;;;;;;1.93;1.80;;;;;;;;;;5022977;28;20411;-83
2021/08/24 11:33:17;;;;;;;2.30;2.10;;;;;;;;;;5017545;28;20523;-83
2021/08/24 11:35:43;;;;;;;1.83;1.63;;;;;;;;;;5006889;28;20573;-82
2021/08/24 11:38:12;;;;;;;2.20;1.87;;;;;;;;;;5024340;28;20450;-82
2021/08/24 11:40:43;;;;;;;2.40;2.20;;;;;;;;;;5012851;28;20534;-82
2021/08/24 11:43:13;;;;;;;2.50;2.30;;;;;;;;;;5022588;28;20437;-82
2021/08/24 11:45:45;;;;;;;4.00;2.30;;;;;;;;;;5013152;28;20462;-83
2021/08/24 11:48:15;;;;;;;3.40;1.87;;;;;;;;;;5018253;28;20443;-85
2021/08/24 11:50:47;;;;;;;2.80;1.60;;;;;;;;;;5008162;28;20530;-84
2021/08/24 11:53:17;;;;;;;2.83;1.83;;;;;;;;;;5025176;28;20428;-83
2021/08/24 11:55:49;;;;;;;2.17;1.50;;;;;;;;;;5040357;28;20437;-83
2021/08/24 11:58:29;;;;;;;2.50;1.97;;;;;;;;;;5045681;28;20469;-82
2021/08/24 12:01:03;;;;;;;2.30;1.67;;;;;;;;;;5049491;28;20441;-82
2021/08/24 12:03:29;;;;;;;1.83;1.60;;;;;;;;;;5047393;28;20425;-84
2021/08/24 12:06:01;;;;;;;2.17;1.73;;;;;;;;;;5045473;28;20391;-83
2021/08/24 12:08:28;;;;;;;2.50;1.80;;;;;;;;;;5050520;28;20434;-83
2021/08/24 12:10:57;;;;;;;3.27;1.93;;;;;;;;;;5048952;28;20857;-82
2021/08/24 12:13:31;;;;;;;3.03;2.17;;;;;;;;;;5049671;28;20916;-84
2021/08/24 12:16:16;;;;;;;1.97;1.70;;;;;;;;;;5051576;28;20451;-84
2021/08/24 12:18:42;;;;;;;2.37;1.70;;;;;;;;;;5060257;28;20543;-83
2021/08/24 12:21:29;;;;;;;3.93;1.93;;;;;;;;;;5045561;28;20460;-82
2021/08/24 12:23:56;;;;;;;2.93;1.90;;;;;;;;;;5074219;28;20481;-84
2021/08/24 12:26:41;;;;;;;3.57;1.87;;;;;;;;;;5051553;28;20414;-83
2021/08/24 12:29:25;;;;;;;4.90;2.30;;;;;;;;;;5060686;28;20419;-83
2021/08/24 12:31:51;;;;;;;2.90;2.50;;;;;;;;;;5050850;28;20437;-83
2021/08/24 12:34:38;;;;;;;2.40;1.90;;;;;;;;;;5056619;28;20432;-84
2021/08/24 12:37:19;;;;;;;2.40;1.80;;;;;;;;;;5056075;28;20505;-83
2021/08/24 12:39:44;;;;;;;2.00;1.70;;;;;;;;;;5059412;28;20439;-81
2021/08/24 12:42:19;;;;;;;5.73;1.97;;;;;;;;;;5042074;28;20523;-84
2021/08/24 12:45:11;;;;;;;3.20;1.80;;;;;;;;;;5047825;28;21021;-83
2021/08/24 12:48:03;;;;;;;3.23;2.00;;;;;;;;;;5062239;28;20433;-84
2021/08/24 12:50:29;;;;;;;2.30;1.80;;;;;;;;;;5062562;28;20817;-84
2021/08/24 12:52:56;;;;;;;4.03;2.07;;;;;;;;;;5049508;28;20419;-83
2021/08/24 12:55:33;;;;;;;4.70;1.90;;;;;;;;;;5048904;28;20466;-83
2021/08/24 12:58:01;;;;;;;2.83;2.20;;;;;;;;;;5048549;28;20423;-83
2021/08/24 13:00:30;;;;;;;3.53;1.60;;;;;;;;;;5046541;28;20425;-83
2021/08/24 13:02:59;;;;;;;1.83;1.67;;;;;;;;;;5044605;28;20436;-86
2021/08/24 13:05:28;;;;;;;1.90;1.70;;;;;;;;;;5050669;28;20459;-84
2021/08/24 13:08:26;;;;;;;2.20;1.87;;;;;;;;;;5048525;28;20431;-83
2021/08/24 13:10:57;;;;;;;2.47;2.27;;;;;;;;;;5023585;28;20447;-84
2021/08/24 13:13:34;;;;;;;2.20;2.00;;;;;;;;;;5010507;28;20440;-83
2021/08/24 13:16:20;;;;;;;2.30;2.00;;;;;;;;;;5024233;28;20443;-82
2021/08/24 13:18:57;;;;;;;2.00;1.80;;;;;;;;;;5008013;28;20464;-84
2021/08/24 13:21:28;;;;;;;2.43;1.90;;;;;;;;;;5007786;28;20447;-83
2021/08/24 13:23:57;;;;;;;3.07;1.87;;;;;;;;;;5023897;28;20499;-82
2021/08/24 13:26:25;;;;;;;1.93;1.83;;;;;;;;;;5023067;28;20419;-81
2021/08/24 13:28:53;;;;;;;1.90;1.50;;;;;;;;;;5021295;28;20437;-85
2021/08/24 13:31:42;;;;;;;2.20;2.00;;;;;;;;;;5021446;28;20584;-83
2021/08/24 13:34:18;;;;;;;2.50;1.80;;;;;;;;;;5016978;28;20469;-81
2021/08/24 13:36:46;;;;;;;2.37;1.87;;;;;;;;;;5023282;28;20451;-85
2021/08/24 13:39:13;;;;;;;3.10;2.00;;;;;;;;;;5006243;28;20984;-83
2021/08/24 13:41:41;;;;;;;2.60;2.40;;;;;;;;;;5010028;28;20484;-83
2021/08/24 13:44:15;;;;;;;2.17;1.90;;;;;;;;;;5016100;28;20460;-84
2021/08/24 13:46:42;;;;;;;3.40;2.17;;;;;;;;;;5039549;28;20508;-83
2021/08/24 13:49:10;;;;;;;1.80;1.57;;;;;;;;;;5051327;28;20795;-81
2021/08/24 13:52:05;;;;;;;2.10;1.70;;;;;;;;;;5058978;28;20439;-84
2021/08/24 13:54:31;;;;;;;2.87;1.90;;;;;;;;;;5052657;28;20792;-83
2021/08/24 13:56:58;;;;;;;2.27;2.03;;;;;;;;;;5044385;28;20442;-82
2021/08/24 13:59:29;;;;;;;1.87;1.77;;;;;;;;;;5058711;28;20458;-83
2021/08/24 14:01:56;;;;;;;3.40;1.97;;;;;;;;;;5048826;28;20444;-83
2021/08/24 14:04:38;;;;;;;2.10;1.40;;;;;;;;;;5047310;28;20471;-83
2021/08/24 14:07:06;;;;;;;2.00;1.90;;;;;;;;;;5046103;28;20446;-82
2021/08/24 14:09:38;;;;;;;1.80;1.43;;;;;;;;;;5045873;28;20501;-83
2021/08/24 14:12:05;;;;;;;3.30;1.80;;;;;;;;;;5058235;28;20446;-83
2021/08/24 14:14:40;;;;;;;2.13;1.90;;;;;;;;;;5048359;28;20427;-83
2021/08/24 14:17:13;;;;;;;2.50;2.00;;;;;;;;;;5059261;28;20444;-83
2021/08/24 14:19:39;;;;;;;1.43;1.33;;;;;;;;;;5043447;28;20475;-83
2021/08/24 14:22:07;;;;;;;5.03;1.90;;;;;;;;;;5045719;28;20511;-83
2021/08/24 14:24:35;;;;;;;3.20;1.90;;;;;;;;;;5046628;28;20437;-82
2021/08/24 14:27:01;;;;;;;1.87;1.37;;;;;;;;;;5041065;28;20443;-83
2021/08/24 14:29:28;;;;;;;3.03;1.97;;;;;;;;;;5047932;28;20444;-83
2021/08/24 14:31:56;;;;;;;1.80;1.50;;;;;;;;;;5046881;28;20750;-83
2021/08/24 14:34:25;;;;;;;3.50;2.20;;;;;;;;;;5045837;28;20434;-82
2021/08/24 14:37:14;;;;;;;4.37;2.00;;;;;;;;;;5043738;28;20410;-84
2021/08/24 14:39:43;;;;;;;1.47;1.37;;;;;;;;;;5050609;28;20410;-81
2021/08/24 14:42:26;;;;;;;2.17;1.93;;;;;;;;;;5039908;28;20439;-82
2021/08/24 14:44:52;;;;;;;1.43;1.33;;;;;;;;;;5059479;28;20454;-84
2021/08/24 14:47:26;;;;;;;4.63;2.03;;;;;;;;;;5047182;28;20477;-82
2021/08/24 14:49:53;;;;;;;2.30;1.77;;;;;;;;;;5046803;28;20397;-84
2021/08/24 14:52:19;;;;;;;1.93;1.70;;;;;;;;;;5045922;28;20516;-83